sensor_id;sensor_type;location;lat;lon;timestamp;temperature;humidity
45233;DHT22;30969;51.052;17.056;2023-05-07T04:55:10;9.00;87.70
45233;DHT22;30969;51.052;17.056;2023-05-07T05:00:14;9.30;90.10
45233;DHT22;30969;51.052;17.056;2023-05-07T05:05:19;9.80;87.60
45233;DHT22;30969;51.052;17.056;2023-05-07T05:10:24;10.20;85.90
45233;DHT22;30969;51.052;17.056;2023-05-07T05:15:28;10.50;83.30
45233;DHT22;30969;51.052;17.056;2023-05-07T05:20:34;10.80;81.80
45233;DHT22;30969;51.052;17.056;2023-05-07T05:25:39;10.90;79.70
45233;DHT22;30969;51.052;17.056;2023-05-07T05:30:43;11.00;79.40
45233;DHT22;30969;51.052;17.056;2023-05-07T05:35:46;11.10;78.80
45233;DHT22;30969;51.052;17.056;2023-05-07T05:40:51;11.20;78.10
45233;DHT22;30969;51.052;17.056;2023-05-07T05:45:58;11.20;76.70
45233;DHT22;30969;51.052;17.056;2023-05-07T05:51:03;11.10;76.40
45233;DHT22;30969;51.052;17.056;2023-05-07T05:56:08;11.00;77.30
45233;DHT22;30969;51.052;17.056;2023-05-07T06:01:11;10.80;76.70
45233;DHT22;30969;51.052;17.056;2023-05-07T06:06:15;10.90;77.30
45233;DHT22;30969;51.052;17.056;2023-05-07T06:11:20;10.90;76.60
45233;DHT22;30969;51.052;17.056;2023-05-07T06:16:24;11.00;77.70
45233;DHT22;30969;51.052;17.056;2023-05-07T06:21:28;11.10;75.70
45233;DHT22;30969;51.052;17.056;2023-05-07T06:26:33;11.00;74.60
45233;DHT22;30969;51.052;17.056;2023-05-07T06:31:37;11.00;74.50
45233;DHT22;30969;51.052;17.056;2023-05-07T06:36:41;11.20;75.00
45233;DHT22;30969;51.052;17.056;2023-05-07T06:41:46;11.30;74.40
45233;DHT22;30969;51.052;17.056;2023-05-07T06:46:50;11.30;73.60
45233;DHT22;30969;51.052;17.056;2023-05-07T06:51:54;11.40;73.70
45233;DHT22;30969;51.052;17.056;2023-05-07T06:57:00;11.40;71.80
45233;DHT22;30969;51.052;17.056;2023-05-07T07:02:05;11.30;72.10
45233;DHT22;30969;51.052;17.056;2023-05-07T07:07:09;11.00;72.10
45233;DHT22;30969;51.052;17.056;2023-05-07T07:12:14;10.70;72.70
45233;DHT22;30969;51.052;17.056;2023-05-07T07:17:17;10.80;73.30
45233;DHT22;30969;51.052;17.056;2023-05-07T07:22:21;10.90;73.70
45233;DHT22;30969;51.052;17.056;2023-05-07T07:27:26;11.00;72.90
45233;DHT22;30969;51.052;17.056;2023-05-07T07:32:29;11.10;72.10
45233;DHT22;30969;51.052;17.056;2023-05-07T07:37:36;11.20;71.80
45233;DHT22;30969;51.052;17.056;2023-05-07T07:42:40;11.20;70.40
45233;DHT22;30969;51.052;17.056;2023-05-07T07:47:47;11.40;71.20
45233;DHT22;30969;51.052;17.056;2023-05-07T07:52:51;11.40;70.10
45233;DHT22;30969;51.052;17.056;2023-05-07T07:57:55;11.30;69.70
45233;DHT22;30969;51.052;17.056;2023-05-07T08:02:59;11.30;70.50
45233;DHT22;30969;51.052;17.056;2023-05-07T08:08:04;11.40;71.20
45233;DHT22;30969;51.052;17.056;2023-05-07T08:13:09;11.30;70.20
45233;DHT22;30969;51.052;17.056;2023-05-07T08:18:13;11.10;70.50
45233;DHT22;30969;51.052;17.056;2023-05-07T08:23:17;11.10;71.40
45233;DHT22;30969;51.052;17.056;2023-05-07T08:28:25;11.10;70.70
45233;DHT22;30969;51.052;17.056;2023-05-07T08:33:29;11.10;71.20
45233;DHT22;30969;51.052;17.056;2023-05-07T08:38:33;11.00;70.40
45233;DHT22;30969;51.052;17.056;2023-05-07T08:43:41;10.90;70.30
45233;DHT22;30969;51.052;17.056;2023-05-07T08:48:48;11.00;71.30
45233;DHT22;30969;51.052;17.056;2023-05-07T08:53:52;11.20;72.40
45233;DHT22;30969;51.052;17.056;2023-05-07T08:58:57;11.40;70.30
45233;DHT22;30969;51.052;17.056;2023-05-07T09:04:01;11.30;69.80
45233;DHT22;30969;51.052;17.056;2023-05-07T09:09:05;11.20;69.70
45233;DHT22;30969;51.052;17.056;2023-05-07T09:14:10;11.30;70.20
45233;DHT22;30969;51.052;17.056;2023-05-07T09:19:14;11.30;70.50
45233;DHT22;30969;51.052;17.056;2023-05-07T09:24:18;11.40;70.30
45233;DHT22;30969;51.052;17.056;2023-05-07T09:29:23;11.40;69.80
45233;DHT22;30969;51.052;17.056;2023-05-07T09:34:27;11.50;69.00
45233;DHT22;30969;51.052;17.056;2023-05-07T09:39:39;11.40;68.00
45233;DHT22;30969;51.052;17.056;2023-05-07T09:44:45;11.40;68.40
45233;DHT22;30969;51.052;17.056;2023-05-07T09:49:50;11.40;68.70
45233;DHT22;30969;51.052;17.056;2023-05-07T09:54:58;11.60;68.40
45233;DHT22;30969;51.052;17.056;2023-05-07T10:00:06;11.60;67.60
45233;DHT22;30969;51.052;17.056;2023-05-07T10:05:11;11.50;68.10
45233;DHT22;30969;51.052;17.056;2023-05-07T10:10:15;11.70;70.00
45233;DHT22;30969;51.052;17.056;2023-05-07T10:15:21;11.80;68.30
45233;DHT22;30969;51.052;17.056;2023-05-07T10:20:27;11.90;67.50
45233;DHT22;30969;51.052;17.056;2023-05-07T10:25:32;12.00;66.60
45233;DHT22;30969;51.052;17.056;2023-05-07T10:30:45;12.20;66.80
45233;DHT22;30969;51.052;17.056;2023-05-07T10:35:51;12.30;65.00
45233;DHT22;30969;51.052;17.056;2023-05-07T10:40:59;12.40;64.80
45233;DHT22;30969;51.052;17.056;2023-05-07T10:46:15;12.40;65.10
45233;DHT22;30969;51.052;17.056;2023-05-07T10:51:21;12.50;64.90
45233;DHT22;30969;51.052;17.056;2023-05-07T10:56:26;12.50;63.70
45233;DHT22;30969;51.052;17.056;2023-05-07T11:01:53;12.60;63.80
45233;DHT22;30969;51.052;17.056;2023-05-07T11:07:29;12.70;64.20
45233;DHT22;30969;51.052;17.056;2023-05-07T11:12:52;12.60;63.60
45233;DHT22;30969;51.052;17.056;2023-05-07T11:17:59;12.50;64.00
45233;DHT22;30969;51.052;17.056;2023-05-07T11:23:03;12.60;64.20
45233;DHT22;30969;51.052;17.056;2023-05-07T11:28:07;12.60;64.10
45233;DHT22;30969;51.052;17.056;2023-05-07T11:33:17;12.50;63.20
45233;DHT22;30969;51.052;17.056;2023-05-07T11:38:22;12.50;63.60
45233;DHT22;30969;51.052;17.056;2023-05-07T11:43:25;12.70;63.70
45233;DHT22;30969;51.052;17.056;2023-05-07T11:48:30;12.80;63.90
45233;DHT22;30969;51.052;17.056;2023-05-07T11:53:37;12.80;63.60
45233;DHT22;30969;51.052;17.056;2023-05-07T11:58:42;12.80;62.00
45233;DHT22;30969;51.052;17.056;2023-05-07T12:03:47;12.90;62.60
45233;DHT22;30969;51.052;17.056;2023-05-07T12:08:51;13.00;63.10
45233;DHT22;30969;51.052;17.056;2023-05-07T12:13:56;12.90;61.40
45233;DHT22;30969;51.052;17.056;2023-05-07T12:19:03;12.90;62.50
45233;DHT22;30969;51.052;17.056;2023-05-07T12:24:08;13.00;61.60
45233;DHT22;30969;51.052;17.056;2023-05-07T12:29:12;13.10;62.40
45233;DHT22;30969;51.052;17.056;2023-05-07T12:34:22;12.90;60.50
45233;DHT22;30969;51.052;17.056;2023-05-07T12:39:26;12.80;61.20
45233;DHT22;30969;51.052;17.056;2023-05-07T12:44:32;12.80;60.90
45233;DHT22;30969;51.052;17.056;2023-05-07T12:49:37;12.70;61.30
45233;DHT22;30969;51.052;17.056;2023-05-07T12:54:44;12.80;62.20
45233;DHT22;30969;51.052;17.056;2023-05-07T12:59:48;12.90;61.30
45233;DHT22;30969;51.052;17.056;2023-05-07T13:04:52;13.00;59.80
45233;DHT22;30969;51.052;17.056;2023-05-07T13:09:56;12.90;60.00
45233;DHT22;30969;51.052;17.056;2023-05-07T13:14:59;12.80;60.10
45233;DHT22;30969;51.052;17.056;2023-05-07T13:20:06;12.80;60.10
45233;DHT22;30969;51.052;17.056;2023-05-07T13:25:11;12.60;60.10
45233;DHT22;30969;51.052;17.056;2023-05-07T13:30:15;12.40;61.30
45233;DHT22;30969;51.052;17.056;2023-05-07T13:35:20;12.40;61.30
45233;DHT22;30969;51.052;17.056;2023-05-07T13:40:24;12.60;61.60
45233;DHT22;30969;51.052;17.056;2023-05-07T13:45:28;12.70;61.50
45233;DHT22;30969;51.052;17.056;2023-05-07T13:50:34;12.80;60.20
45233;DHT22;30969;51.052;17.056;2023-05-07T13:55:37;12.60;60.20
45233;DHT22;30969;51.052;17.056;2023-05-07T14:00:41;12.50;59.50
45233;DHT22;30969;51.052;17.056;2023-05-07T14:05:46;12.50;60.20
45233;DHT22;30969;51.052;17.056;2023-05-07T14:10:51;12.50;60.50
45233;DHT22;30969;51.052;17.056;2023-05-07T14:15:55;12.60;60.80
45233;DHT22;30969;51.052;17.056;2023-05-07T14:21:00;12.60;61.00
45233;DHT22;30969;51.052;17.056;2023-05-07T14:26:03;12.70;60.50
45233;DHT22;30969;51.052;17.056;2023-05-07T14:31:07;12.60;60.20
45233;DHT22;30969;51.052;17.056;2023-05-07T14:36:12;12.60;60.30
45233;DHT22;30969;51.052;17.056;2023-05-07T14:41:20;12.50;59.60
45233;DHT22;30969;51.052;17.056;2023-05-07T14:46:24;12.60;60.20
45233;DHT22;30969;51.052;17.056;2023-05-07T14:51:30;12.60;61.10
45233;DHT22;30969;51.052;17.056;2023-05-07T14:56:35;12.60;59.80
45233;DHT22;30969;51.052;17.056;2023-05-07T15:01:39;12.60;60.00
45233;DHT22;30969;51.052;17.056;2023-05-07T15:06:48;12.60;59.70
45233;DHT22;30969;51.052;17.056;2023-05-07T15:11:52;12.50;60.20
45233;DHT22;30969;51.052;17.056;2023-05-07T15:16:55;12.50;60.70
45233;DHT22;30969;51.052;17.056;2023-05-07T15:22:00;12.40;61.10
45233;DHT22;30969;51.052;17.056;2023-05-07T15:27:05;12.40;61.40
45233;DHT22;30969;51.052;17.056;2023-05-07T15:32:09;12.40;61.40
45233;DHT22;30969;51.052;17.056;2023-05-07T15:37:14;12.40;61.40
45233;DHT22;30969;51.052;17.056;2023-05-07T15:42:18;12.40;61.30
45233;DHT22;30969;51.052;17.056;2023-05-07T15:47:22;12.30;61.50
45233;DHT22;30969;51.052;17.056;2023-05-07T15:52:27;12.30;62.00
45233;DHT22;30969;51.052;17.056;2023-05-07T15:57:30;12.30;62.10
45233;DHT22;30969;51.052;17.056;2023-05-07T16:02:34;12.40;62.10
45233;DHT22;30969;51.052;17.056;2023-05-07T16:07:40;12.40;61.20
45233;DHT22;30969;51.052;17.056;2023-05-07T16:12:45;12.30;61.20
45233;DHT22;30969;51.052;17.056;2023-05-07T16:17:48;12.30;61.60
45233;DHT22;30969;51.052;17.056;2023-05-07T16:22:57;12.30;61.70
45233;DHT22;30969;51.052;17.056;2023-05-07T16:28:01;12.20;62.10
45233;DHT22;30969;51.052;17.056;2023-05-07T16:33:05;12.20;62.30
45233;DHT22;30969;51.052;17.056;2023-05-07T16:38:10;12.20;62.20
45233;DHT22;30969;51.052;17.056;2023-05-07T16:43:14;12.30;62.10
45233;DHT22;30969;51.052;17.056;2023-05-07T16:48:17;12.30;62.20
45233;DHT22;30969;51.052;17.056;2023-05-07T16:53:23;12.40;62.00
45233;DHT22;30969;51.052;17.056;2023-05-07T16:58:28;12.40;61.90
45233;DHT22;30969;51.052;17.056;2023-05-07T17:03:31;12.40;62.00
45233;DHT22;30969;51.052;17.056;2023-05-07T17:08:36;12.30;61.90
45233;DHT22;30969;51.052;17.056;2023-05-07T17:13:43;12.20;62.70
45233;DHT22;30969;51.052;17.056;2023-05-07T17:18:46;12.10;62.80
45233;DHT22;30969;51.052;17.056;2023-05-07T17:23:51;12.10;62.60
45233;DHT22;30969;51.052;17.056;2023-05-07T17:28:55;12.00;62.40
45233;DHT22;30969;51.052;17.056;2023-05-07T17:33:58;11.90;63.20
45233;DHT22;30969;51.052;17.056;2023-05-07T17:39:03;11.80;63.50
45233;DHT22;30969;51.052;17.056;2023-05-07T17:44:07;11.70;64.00
45233;DHT22;30969;51.052;17.056;2023-05-07T17:49:10;11.70;64.00
45233;DHT22;30969;51.052;17.056;2023-05-07T17:54:15;11.80;64.00
45233;DHT22;30969;51.052;17.056;2023-05-07T17:59:19;11.70;64.20
45233;DHT22;30969;51.052;17.056;2023-05-07T18:04:22;11.80;64.00
45233;DHT22;30969;51.052;17.056;2023-05-07T18:09:29;11.70;64.00
45233;DHT22;30969;51.052;17.056;2023-05-07T18:14:32;11.50;64.40
45233;DHT22;30969;51.052;17.056;2023-05-07T18:19:36;11.40;64.30
45233;DHT22;30969;51.052;17.056;2023-05-07T18:24:41;11.40;64.30
45233;DHT22;30969;51.052;17.056;2023-05-07T18:29:44;11.30;65.40
45233;DHT22;30969;51.052;17.056;2023-05-07T18:34:48;11.30;64.00
45233;DHT22;30969;51.052;17.056;2023-05-07T18:39:53;11.40;64.20
45233;DHT22;30969;51.052;17.056;2023-05-07T18:44:56;11.30;65.40
45233;DHT22;30969;51.052;17.056;2023-05-07T18:50:00;11.30;64.40
45233;DHT22;30969;51.052;17.056;2023-05-07T18:55:06;11.30;64.30
45233;DHT22;30969;51.052;17.056;2023-05-07T19:00:10;11.30;64.20
45233;DHT22;30969;51.052;17.056;2023-05-07T19:05:15;11.30;64.60
45233;DHT22;30969;51.052;17.056;2023-05-07T19:10:21;11.30;64.70
45233;DHT22;30969;51.052;17.056;2023-05-07T19:15:25;11.30;64.70
45233;DHT22;30969;51.052;17.056;2023-05-07T19:20:29;11.20;65.10
45233;DHT22;30969;51.052;17.056;2023-05-07T19:25:34;11.30;64.80
45233;DHT22;30969;51.052;17.056;2023-05-07T19:30:38;11.30;64.60
45233;DHT22;30969;51.052;17.056;2023-05-07T19:35:42;11.40;64.60
45233;DHT22;30969;51.052;17.056;2023-05-07T19:40:47;11.40;64.30
45233;DHT22;30969;51.052;17.056;2023-05-07T19:45:51;11.40;64.30
45233;DHT22;30969;51.052;17.056;2023-05-07T19:50:56;11.30;64.50
45233;DHT22;30969;51.052;17.056;2023-05-07T19:56:06;11.30;64.60
45233;DHT22;30969;51.052;17.056;2023-05-07T20:01:10;11.20;64.60
45233;DHT22;30969;51.052;17.056;2023-05-07T20:06:14;11.10;64.40
45233;DHT22;30969;51.052;17.056;2023-05-07T20:11:19;11.20;64.60
45233;DHT22;30969;51.052;17.056;2023-05-07T20:16:22;11.00;64.60
45233;DHT22;30969;51.052;17.056;2023-05-07T20:21:26;11.00;65.10
45233;DHT22;30969;51.052;17.056;2023-05-07T20:26:31;11.10;64.80
45233;DHT22;30969;51.052;17.056;2023-05-07T20:31:35;11.10;64.60
45233;DHT22;30969;51.052;17.056;2023-05-07T20:36:38;11.00;63.30
45233;DHT22;30969;51.052;17.056;2023-05-07T20:41:43;10.90;62.80
45233;DHT22;30969;51.052;17.056;2023-05-07T20:46:47;10.90;63.80
45233;DHT22;30969;51.052;17.056;2023-05-07T20:51:51;10.90;62.80
45233;DHT22;30969;51.052;17.056;2023-05-07T20:56:55;10.80;62.10
45233;DHT22;30969;51.052;17.056;2023-05-07T21:01:59;10.80;61.50
45233;DHT22;30969;51.052;17.056;2023-05-07T21:07:03;10.80;61.60
45233;DHT22;30969;51.052;17.056;2023-05-07T21:12:08;10.80;61.90
45233;DHT22;30969;51.052;17.056;2023-05-07T21:17:12;10.80;60.90
45233;DHT22;30969;51.052;17.056;2023-05-07T21:22:15;10.60;59.60
45233;DHT22;30969;51.052;17.056;2023-05-07T21:27:21;10.40;59.70
45233;DHT22;30969;51.052;17.056;2023-05-07T21:32:24;10.40;60.20
45233;DHT22;30969;51.052;17.056;2023-05-07T21:37:28;10.20;60.50
45233;DHT22;30969;51.052;17.056;2023-05-07T21:42:33;10.20;61.20
45233;DHT22;30969;51.052;17.056;2023-05-07T21:47:36;10.00;61.70
45233;DHT22;30969;51.052;17.056;2023-05-07T21:52:40;9.90;62.00
45233;DHT22;30969;51.052;17.056;2023-05-07T21:57:45;9.90;62.30
45233;DHT22;30969;51.052;17.056;2023-05-07T22:03:05;9.90;62.30
45233;DHT22;30969;51.052;17.056;2023-05-07T22:08:09;10.00;62.30
45233;DHT22;30969;51.052;17.056;2023-05-07T22:13:14;9.90;62.20
45233;DHT22;30969;51.052;17.056;2023-05-07T22:18:18;9.90;62.50
45233;DHT22;30969;51.052;17.056;2023-05-07T22:23:21;9.90;62.60
45233;DHT22;30969;51.052;17.056;2023-05-07T22:28:26;10.00;62.80
